createdAt,value
2017-08-15T00:02:25.019Z,6.77
2017-08-15T00:04:53.345Z,5.37
2017-08-15T00:07:20.867Z,5.57
2017-08-15T00:09:48.418Z,5.57
2017-08-15T00:12:16.707Z,6.37
2017-08-15T00:14:44.254Z,6.20
2017-08-15T00:17:12.547Z,5.60
2017-08-15T00:19:40.099Z,6.10
2017-08-15T00:22:07.633Z,6.37
2017-08-15T00:24:35.182Z,6.10
2017-08-15T00:27:02.706Z,5.90
2017-08-15T00:29:30.263Z,5.70
2017-08-15T00:31:57.794Z,6.20
2017-08-15T00:34:25.351Z,6.73
2017-08-15T00:36:52.882Z,6.57
2017-08-15T00:39:20.430Z,7.10
2017-08-15T00:41:47.959Z,6.57
2017-08-15T00:44:15.503Z,6.67
2017-08-15T00:46:43.040Z,6.70
2017-08-15T00:49:11.339Z,6.03
2017-08-15T00:51:38.890Z,5.30
2017-08-15T00:54:06.412Z,6.07
2017-08-15T00:56:33.954Z,5.70
2017-08-15T00:59:01.488Z,6.50
2017-08-15T01:01:29.039Z,5.57
2017-08-15T01:03:56.562Z,5.83
2017-08-15T01:06:24.113Z,5.77
2017-08-15T01:08:51.630Z,5.70
2017-08-15T01:11:19.192Z,5.40
2017-08-15T01:13:46.721Z,6.13
2017-08-15T01:16:14.272Z,6.73
2017-08-15T01:18:42.566Z,5.90
2017-08-15T01:21:10.119Z,6.37
2017-08-15T01:23:37.642Z,6.97
2017-08-15T01:26:05.190Z,6.20
2017-08-15T01:28:32.718Z,5.97
2017-08-15T01:31:00.263Z,6.70
2017-08-15T01:33:27.790Z,6.50
2017-08-15T01:35:55.398Z,6.13
2017-08-15T01:38:22.909Z,6.03
2017-08-15T01:40:50.462Z,5.53
2017-08-15T01:43:17.990Z,6.10
2017-08-15T01:45:45.510Z,5.77
2017-08-15T01:48:13.063Z,6.87
2017-08-15T01:50:41.354Z,6.53
2017-08-15T01:53:08.902Z,6.53
2017-08-15T01:55:37.191Z,7.33
2017-08-15T01:58:04.730Z,7.90
2017-08-15T02:00:33.029Z,7.87
2017-08-15T02:03:00.582Z,7.70
2017-08-15T02:05:28.114Z,8.27
2017-08-15T02:07:55.666Z,9.60
2017-08-15T02:10:23.207Z,9.23
2017-08-15T02:12:50.750Z,8.20
2017-08-15T02:15:18.274Z,9.00
2017-08-15T02:17:45.824Z,8.60
2017-08-15T02:20:14.131Z,8.83
2017-08-15T02:22:41.686Z,9.40
2017-08-15T02:25:09.215Z,9.07
2017-08-15T02:27:37.535Z,10.23
2017-08-15T02:30:05.063Z,9.93
2017-08-15T02:32:33.378Z,10.03
2017-08-15T02:35:00.906Z,9.60
2017-08-15T02:37:28.474Z,11.03
2017-08-15T02:39:56.025Z,9.80
2017-08-15T02:42:24.308Z,8.97
2017-08-15T02:44:51.868Z,10.57
2017-08-15T02:47:19.402Z,10.60
2017-08-15T02:49:46.952Z,9.17
2017-08-15T02:52:14.482Z,9.50
2017-08-15T02:54:42.034Z,8.93
2017-08-15T02:57:09.571Z,10.20
2017-08-15T02:59:37.128Z,9.80
2017-08-15T03:02:04.664Z,10.47
2017-08-15T03:04:32.990Z,9.13
2017-08-15T03:07:00.524Z,9.40
2017-08-15T03:09:28.090Z,10.03
2017-08-15T03:11:55.627Z,10.37
2017-08-15T03:14:23.174Z,9.53
2017-08-15T03:16:51.470Z,10.13
2017-08-15T03:19:19.787Z,9.70
2017-08-15T03:21:47.323Z,9.50
2017-08-15T03:24:14.882Z,8.60
2017-08-15T03:26:42.418Z,8.53
2017-08-15T03:29:10.732Z,8.20
2017-08-15T03:31:38.262Z,8.97
2017-08-15T03:34:05.793Z,9.17
2017-08-15T03:36:33.363Z,10.23
2017-08-15T03:39:01.660Z,9.43
2017-08-15T03:41:29.222Z,10.50
2017-08-15T03:43:56.763Z,10.20
2017-08-15T03:46:25.078Z,9.13
2017-08-15T03:48:52.611Z,10.37
2017-08-15T03:51:20.939Z,9.77
2017-08-15T03:53:48.461Z,9.70
2017-08-15T03:56:16.026Z,9.43
2017-08-15T03:58:43.555Z,10.00
2017-08-15T04:01:11.876Z,9.33
2017-08-15T04:03:39.413Z,10.23
2017-08-15T04:06:07.007Z,9.73
2017-08-15T04:08:34.536Z,9.27
2017-08-15T04:11:02.096Z,9.17
2017-08-15T04:13:29.641Z,9.63
2017-08-15T04:15:57.974Z,11.10
2017-08-15T04:18:25.511Z,11.70
2017-08-15T04:20:53.085Z,12.10
2017-08-15T04:23:20.630Z,11.17
2017-08-15T04:25:48.202Z,9.80
2017-08-15T04:28:15.746Z,9.97
2017-08-15T04:30:43.271Z,9.97
2017-08-15T04:33:11.591Z,10.30
2017-08-15T04:35:39.127Z,8.90
2017-08-15T04:38:06.694Z,9.77
2017-08-15T04:40:34.229Z,8.43
2017-08-15T04:43:02.550Z,8.30
2017-08-15T04:45:30.076Z,8.97
2017-08-15T04:47:58.421Z,8.37
2017-08-15T04:50:25.962Z,8.73
2017-08-15T04:52:53.515Z,9.03
2017-08-15T04:55:21.050Z,8.70
2017-08-15T04:57:48.627Z,9.23
2017-08-15T05:00:16.174Z,9.20
2017-08-15T05:02:43.721Z,9.77
2017-08-15T05:05:11.265Z,9.10
2017-08-15T05:07:38.827Z,8.13
2017-08-15T05:10:07.127Z,8.63
2017-08-15T05:12:34.686Z,9.53
2017-08-15T05:15:02.222Z,11.03
2017-08-15T05:17:30.543Z,10.53
2017-08-15T05:19:58.090Z,11.73
2017-08-15T05:22:25.641Z,9.30
2017-08-15T05:24:53.193Z,9.97
2017-08-15T05:27:20.735Z,10.53
2017-08-15T05:29:49.065Z,10.60
2017-08-15T05:32:16.615Z,10.90
2017-08-15T05:34:44.174Z,10.50
2017-08-15T05:37:12.244Z,10.80
2017-08-15T05:39:39.806Z,10.30
2017-08-15T05:42:07.328Z,9.90
2017-08-15T05:44:35.648Z,9.40
2017-08-15T05:47:03.181Z,8.53
2017-08-15T05:49:30.745Z,8.70
2017-08-15T05:51:58.294Z,9.47
2017-08-15T05:54:25.843Z,9.20
2017-08-15T05:56:54.142Z,8.07
2017-08-15T05:59:21.687Z,8.90
2017-08-15T06:01:49.980Z,7.67
2017-08-15T06:04:17.542Z,7.53
2017-08-15T06:06:45.061Z,7.73
2017-08-15T06:09:12.607Z,7.20
2017-08-15T06:11:40.130Z,7.97
2017-08-15T06:14:07.674Z,6.83
2017-08-15T06:16:35.205Z,7.27
2017-08-15T06:19:03.522Z,6.80
2017-08-15T06:21:31.046Z,6.30
2017-08-15T06:23:59.343Z,6.63
2017-08-15T06:26:26.891Z,7.07
2017-08-15T06:28:55.181Z,7.30
2017-08-15T06:31:22.746Z,6.87
2017-08-15T06:33:50.278Z,6.70
2017-08-15T06:36:18.618Z,6.50
2017-08-15T06:38:46.146Z,7.07
2017-08-15T06:41:13.699Z,5.80
2017-08-15T06:43:41.227Z,6.57
2017-08-15T06:46:08.775Z,5.27
2017-08-15T06:48:36.310Z,5.93
2017-08-15T06:51:03.876Z,5.70
2017-08-15T06:53:31.406Z,5.70
2017-08-15T06:55:58.959Z,5.60
2017-08-15T06:58:26.487Z,6.23
2017-08-15T07:00:54.814Z,5.87
2017-08-15T07:03:22.356Z,5.23
2017-08-15T07:05:49.913Z,5.23
2017-08-15T07:08:17.446Z,5.10
2017-08-15T07:10:45.772Z,4.90
2017-08-15T07:13:13.303Z,5.10
2017-08-15T07:15:40.873Z,4.70
2017-08-15T07:18:08.398Z,5.43
2017-08-15T07:20:35.934Z,4.70
2017-08-15T07:23:03.500Z,4.20
2017-08-15T07:25:31.047Z,4.10
2017-08-15T07:27:58.603Z,3.90
2017-08-15T07:30:26.122Z,4.23
2017-08-15T07:32:53.668Z,4.40
2017-08-15T07:35:21.221Z,4.20
2017-08-15T07:37:49.554Z,4.57
2017-08-15T07:40:17.079Z,4.63
2017-08-15T07:42:44.630Z,4.50
2017-08-15T07:45:12.162Z,4.63
2017-08-15T07:47:39.724Z,10.97
2017-08-15T07:50:07.259Z,8.73
2017-08-15T07:52:34.814Z,5.70
2017-08-15T07:55:02.345Z,5.03
2017-08-15T07:57:29.911Z,3.53
2017-08-15T07:59:57.437Z,3.97
2017-08-15T08:02:25.757Z,4.37
2017-08-15T08:04:53.280Z,4.20
2017-08-15T08:07:21.595Z,4.20
2017-08-15T08:09:49.130Z,3.87
2017-08-15T08:12:16.693Z,4.83
2017-08-15T08:14:44.217Z,4.40
2017-08-15T08:17:11.733Z,3.70
2017-08-15T08:19:39.278Z,5.70
2017-08-15T08:22:06.800Z,5.20
2017-08-15T08:24:35.118Z,4.60
2017-08-15T08:27:02.643Z,4.80
2017-08-15T08:29:30.963Z,4.80
2017-08-15T08:31:58.486Z,4.33
2017-08-15T08:34:26.808Z,4.30
2017-08-15T08:36:54.338Z,5.93
2017-08-15T08:39:21.889Z,4.53
2017-08-15T08:41:49.414Z,3.80
2017-08-15T08:44:16.962Z,3.80
2017-08-15T08:46:44.496Z,3.03
2017-08-15T08:49:12.034Z,3.87
2017-08-15T08:51:39.562Z,3.80
2017-08-15T08:54:07.114Z,3.80
2017-08-15T08:56:34.647Z,3.80
2017-08-15T08:59:02.202Z,3.20
2017-08-15T09:01:29.739Z,3.47
2017-08-15T09:03:57.294Z,3.70
2017-08-15T09:06:24.818Z,3.40
2017-08-15T09:08:52.342Z,3.40
2017-08-15T09:11:19.887Z,3.30
2017-08-15T09:13:47.411Z,3.50
2017-08-15T09:16:15.719Z,3.60
2017-08-15T09:18:43.259Z,3.40
2017-08-15T09:21:10.802Z,3.30
2017-08-15T09:23:39.103Z,3.37
2017-08-15T09:26:06.650Z,4.10
2017-08-15T09:28:34.938Z,3.50
2017-08-15T09:31:02.532Z,3.27
2017-08-15T09:33:30.054Z,3.63
2017-08-15T09:35:57.603Z,3.50
2017-08-15T09:38:25.912Z,4.50
2017-08-15T09:40:53.539Z,3.40
2017-08-15T09:43:21.847Z,3.93
2017-08-15T09:45:49.407Z,4.00
2017-08-15T09:48:16.941Z,3.77
2017-08-15T09:50:45.255Z,4.20
2017-08-15T09:53:12.788Z,4.90
2017-08-15T09:55:40.336Z,3.80
2017-08-15T09:58:14.234Z,4.60
2017-08-15T10:00:42.554Z,4.23
2017-08-15T10:03:10.091Z,3.93
2017-08-15T10:05:37.631Z,4.00
2017-08-15T10:08:05.958Z,3.50
2017-08-15T10:10:33.477Z,4.00
2017-08-15T10:13:01.796Z,3.83
2017-08-15T10:15:29.334Z,3.80
2017-08-15T10:17:56.892Z,4.23
2017-08-15T10:20:24.415Z,3.57
2017-08-15T10:22:51.965Z,3.70
2017-08-15T10:25:19.495Z,4.10
2017-08-15T10:27:47.062Z,3.33
2017-08-15T10:30:14.587Z,4.33
2017-08-15T10:32:42.150Z,4.50
2017-08-15T10:35:09.680Z,4.73
2017-08-15T10:37:37.249Z,4.87
2017-08-15T10:40:05.546Z,5.37
2017-08-15T10:42:33.090Z,5.53
2017-08-15T10:45:01.376Z,5.10
2017-08-15T10:47:28.921Z,6.10
2017-08-15T10:49:57.213Z,6.17
2017-08-15T10:52:24.767Z,6.00
2017-08-15T10:54:52.299Z,6.33
2017-08-15T10:57:19.862Z,6.80
2017-08-15T10:59:47.390Z,7.67
2017-08-15T11:02:14.923Z,6.90
2017-08-15T11:04:42.475Z,7.80
2017-08-15T11:07:09.997Z,7.30
2017-08-15T11:09:37.558Z,7.20
2017-08-15T11:12:05.088Z,7.77
2017-08-15T11:14:32.631Z,6.53
2017-08-15T11:17:00.156Z,7.67
2017-08-15T11:19:34.127Z,7.77
2017-08-15T11:22:01.660Z,8.17
2017-08-15T11:24:29.210Z,8.87
2017-08-15T11:26:56.743Z,7.90
2017-08-15T11:29:25.084Z,7.20
2017-08-15T11:31:52.644Z,7.07
2017-08-15T11:34:20.195Z,7.00
2017-08-15T11:36:47.746Z,7.60
2017-08-15T11:39:15.302Z,6.93
2017-08-15T11:41:42.849Z,7.10
2017-08-15T11:44:10.412Z,7.80
2017-08-15T11:46:37.952Z,8.70
2017-08-15T11:49:05.506Z,8.80
2017-08-15T11:51:33.034Z,7.60
2017-08-15T11:54:00.579Z,7.27
2017-08-15T11:56:28.113Z,7.53
2017-08-15T11:58:55.690Z,7.80
2017-08-15T12:01:23.222Z,7.57
2017-08-15T12:03:50.774Z,7.00
2017-08-15T12:06:18.318Z,6.60
2017-08-15T12:08:45.863Z,6.83
2017-08-15T12:11:14.184Z,6.90
2017-08-15T12:13:41.716Z,7.13
2017-08-15T12:16:09.275Z,6.93
2017-08-15T12:18:37.562Z,6.33
2017-08-15T12:21:05.112Z,6.73
2017-08-15T12:23:32.642Z,6.90
2017-08-15T12:26:00.192Z,6.40
2017-08-15T12:28:27.715Z,6.40
2017-08-15T12:30:55.264Z,7.47
2017-08-15T12:33:22.798Z,6.97
2017-08-15T12:35:51.119Z,6.80
2017-08-15T12:38:18.642Z,7.33
2017-08-15T12:40:46.966Z,6.80
2017-08-15T12:43:14.494Z,7.80
2017-08-15T12:45:42.062Z,8.10
2017-08-15T12:48:09.597Z,7.77
2017-08-15T12:50:37.931Z,7.83
2017-08-15T12:53:05.462Z,7.93
2017-08-15T12:55:33.012Z,7.67
2017-08-15T12:58:00.566Z,8.50
2017-08-15T13:00:28.116Z,8.43
2017-08-15T13:02:56.445Z,7.97
2017-08-15T13:05:23.988Z,8.30
2017-08-15T13:07:51.547Z,7.53
2017-08-15T13:10:19.077Z,7.57
2017-08-15T13:12:46.637Z,7.10
2017-08-15T13:15:14.158Z,7.50
2017-08-15T13:17:41.702Z,7.83
2017-08-15T13:20:09.242Z,7.40
2017-08-15T13:22:36.786Z,8.30
2017-08-15T13:25:04.315Z,8.23
2017-08-15T13:27:32.634Z,7.80
2017-08-15T13:30:00.160Z,9.00
2017-08-15T13:32:28.483Z,10.73
2017-08-15T13:34:56.013Z,9.40
2017-08-15T13:37:23.571Z,9.00
2017-08-15T13:39:51.103Z,8.60
2017-08-15T13:42:18.660Z,8.00
2017-08-15T13:44:46.191Z,7.60
2017-08-15T13:47:13.746Z,8.30
2017-08-15T13:49:41.287Z,7.80
2017-08-15T13:52:08.815Z,8.13
2017-08-15T13:54:37.151Z,7.47
2017-08-15T13:57:04.692Z,8.03
2017-08-15T13:59:32.254Z,8.00
2017-08-15T14:01:59.787Z,6.43
2017-08-15T14:04:27.338Z,8.33
2017-08-15T14:06:54.871Z,8.20
2017-08-15T14:09:22.430Z,7.67
2017-08-15T14:11:49.954Z,7.90
2017-08-15T14:14:17.510Z,7.10
2017-08-15T14:16:45.150Z,8.00
2017-08-15T14:19:12.708Z,8.07
2017-08-15T14:21:40.239Z,8.13
2017-08-15T14:24:07.799Z,8.00
2017-08-15T14:26:35.328Z,7.73
2017-08-15T14:29:02.883Z,7.87
2017-08-15T14:31:30.422Z,7.30
2017-08-15T14:33:57.978Z,6.70
2017-08-15T14:36:25.507Z,7.80
2017-08-15T14:38:53.823Z,7.10
2017-08-15T14:41:21.345Z,6.73
2017-08-15T14:43:48.871Z,7.30
2017-08-15T14:46:16.422Z,6.60
2017-08-15T14:48:43.950Z,7.07
2017-08-15T14:51:11.510Z,6.33
2017-08-15T14:53:39.032Z,6.83
2017-08-15T14:56:06.575Z,6.77
2017-08-15T14:58:34.101Z,6.63
2017-08-15T15:01:01.802Z,6.33
2017-08-15T15:03:29.332Z,7.00
2017-08-15T15:05:56.883Z,6.80
2017-08-15T15:08:24.406Z,6.73
2017-08-15T15:10:52.718Z,7.10
2017-08-15T15:13:20.242Z,7.10
2017-08-15T15:15:47.791Z,7.00
2017-08-15T15:18:16.084Z,6.60
2017-08-15T15:20:43.631Z,6.20
2017-08-15T15:23:11.951Z,6.50
2017-08-15T15:25:39.520Z,6.67
2017-08-15T15:28:07.055Z,6.13
2017-08-15T15:30:34.618Z,7.13
2017-08-15T15:33:02.142Z,6.80
2017-08-15T15:35:30.477Z,5.80
2017-08-15T15:37:57.998Z,6.80
2017-08-15T15:40:25.535Z,6.40
2017-08-15T15:42:53.857Z,6.50
2017-08-15T15:45:21.386Z,6.50
2017-08-15T15:47:48.938Z,7.00
2017-08-15T15:50:17.234Z,6.43
2017-08-15T15:52:44.792Z,6.37
2017-08-15T15:55:12.322Z,5.77
2017-08-15T15:57:39.890Z,6.00
2017-08-15T16:00:08.209Z,7.00
2017-08-15T16:02:35.773Z,7.40
2017-08-15T16:05:03.298Z,7.00
2017-08-15T16:07:30.862Z,5.90
2017-08-15T16:09:59.158Z,5.83
2017-08-15T16:12:26.711Z,6.07
2017-08-15T16:14:54.240Z,6.53
2017-08-15T16:17:22.560Z,5.93
2017-08-15T16:19:50.095Z,5.50
2017-08-15T16:22:17.650Z,6.20
2017-08-15T16:24:45.943Z,5.20
2017-08-15T16:27:13.494Z,6.27
2017-08-15T16:29:41.031Z,5.97
2017-08-15T16:32:08.579Z,6.67
2017-08-15T16:34:36.103Z,5.90
2017-08-15T16:37:03.631Z,6.50
2017-08-15T16:39:31.186Z,6.30
2017-08-15T16:41:59.479Z,5.97
2017-08-15T16:44:27.030Z,6.40
2017-08-15T16:46:54.557Z,6.67
2017-08-15T16:49:22.102Z,6.50
2017-08-15T16:51:49.626Z,5.73
2017-08-15T16:54:17.173Z,6.47
2017-08-15T16:56:44.707Z,6.33
2017-08-15T16:59:13.031Z,6.47
2017-08-15T17:01:40.554Z,6.33
2017-08-15T17:04:08.870Z,5.50
2017-08-15T17:06:36.394Z,6.23
2017-08-15T17:09:04.708Z,5.83
2017-08-15T17:11:32.247Z,6.27
2017-08-15T17:13:59.790Z,6.07
2017-08-15T17:16:28.081Z,6.70
2017-08-15T17:18:55.626Z,6.63
2017-08-15T17:21:23.923Z,7.20
2017-08-15T17:23:51.479Z,6.23
2017-08-15T17:26:19.011Z,6.10
2017-08-15T17:28:46.614Z,6.47
2017-08-15T17:31:14.134Z,7.10
2017-08-15T17:33:42.435Z,6.30
2017-08-15T17:36:10.016Z,7.10
2017-08-15T17:38:37.547Z,7.00
2017-08-15T17:41:05.101Z,6.80
2017-08-15T17:43:32.643Z,6.97
2017-08-15T17:46:00.209Z,7.23
2017-08-15T17:48:28.526Z,6.70
2017-08-15T17:50:56.092Z,7.07
2017-08-15T17:53:23.642Z,6.70
2017-08-15T17:55:51.196Z,6.90
2017-08-15T17:58:18.724Z,6.40
2017-08-15T18:00:47.043Z,7.07
2017-08-15T18:03:14.579Z,7.10
2017-08-15T18:05:42.147Z,6.43
2017-08-15T18:08:09.674Z,6.63
2017-08-15T18:10:37.231Z,6.77
2017-08-15T18:13:04.761Z,6.67
2017-08-15T18:15:32.341Z,6.77
2017-08-15T18:17:59.944Z,7.40
2017-08-15T18:20:27.514Z,7.40
2017-08-15T18:22:55.038Z,6.83
2017-08-15T18:25:23.426Z,6.70
2017-08-15T18:27:51.719Z,6.80
2017-08-15T18:30:19.292Z,6.90
2017-08-15T18:32:46.818Z,7.00
2017-08-15T18:35:15.121Z,6.73
2017-08-15T18:37:42.683Z,7.00
2017-08-15T18:40:10.240Z,7.07
2017-08-15T18:42:37.801Z,5.80
2017-08-15T18:45:05.325Z,5.63
2017-08-15T18:47:33.641Z,6.80
2017-08-15T18:50:01.171Z,6.10
2017-08-15T18:52:29.496Z,6.77
2017-08-15T18:54:57.028Z,6.20
2017-08-15T18:57:24.615Z,6.50
2017-08-15T18:59:52.161Z,6.40
2017-08-15T19:02:19.711Z,5.37
2017-08-15T19:04:47.243Z,5.90
2017-08-15T19:07:15.662Z,6.57
2017-08-15T19:09:43.837Z,5.53
2017-08-15T19:12:11.508Z,5.20
2017-08-15T19:14:39.046Z,5.90
2017-08-15T19:17:06.591Z,5.37
2017-08-15T19:19:34.115Z,5.13
2017-08-15T19:22:01.662Z,4.83
2017-08-15T19:24:29.186Z,4.93
2017-08-15T19:26:56.735Z,4.63
2017-08-15T19:29:24.262Z,5.03
2017-08-15T19:31:51.782Z,5.03
2017-08-15T19:34:19.411Z,5.03
2017-08-15T19:36:46.955Z,5.03
2017-08-15T19:39:15.271Z,4.97
2017-08-15T19:41:42.795Z,4.70
2017-08-15T19:44:11.291Z,4.63
2017-08-15T19:46:38.827Z,4.37
2017-08-15T19:49:06.379Z,4.23
2017-08-15T19:51:33.906Z,4.20
2017-08-15T19:54:01.455Z,5.30
2017-08-15T19:56:28.986Z,4.73
2017-08-15T19:58:57.345Z,4.87
2017-08-15T20:01:25.639Z,4.30
2017-08-15T20:03:53.951Z,4.60
2017-08-15T20:06:21.483Z,5.33
2017-08-15T20:08:49.039Z,4.50
2017-08-15T20:11:17.331Z,5.10
2017-08-15T20:13:47.891Z,4.40
2017-08-15T20:16:15.414Z,4.93
2017-08-15T20:18:43.015Z,4.87
2017-08-15T20:21:10.544Z,5.00
2017-08-15T20:23:38.081Z,4.50
2017-08-15T20:26:05.642Z,4.40
2017-08-15T20:28:33.930Z,4.70
2017-08-15T20:31:01.486Z,5.27
2017-08-15T20:33:29.011Z,5.43
2017-08-15T20:35:56.563Z,5.83
2017-08-15T20:38:24.091Z,5.53
2017-08-15T20:40:51.638Z,5.80
2017-08-15T20:43:19.175Z,5.87
2017-08-15T20:45:47.722Z,5.30
2017-08-15T20:48:15.255Z,5.10
2017-08-15T20:50:42.887Z,5.13
2017-08-15T20:53:10.410Z,5.30
2017-08-15T20:55:37.949Z,5.20
2017-08-15T20:58:05.470Z,4.30
2017-08-15T21:00:33.021Z,5.63
2017-08-15T21:03:00.543Z,4.90
2017-08-15T21:05:28.093Z,4.60
2017-08-15T21:07:55.674Z,6.10
2017-08-15T21:10:23.231Z,5.30
2017-08-15T21:12:50.754Z,5.20
2017-08-15T21:15:18.323Z,5.30
2017-08-15T21:17:45.855Z,5.33
2017-08-15T21:20:13.378Z,5.40
2017-08-15T21:22:40.930Z,5.60
2017-08-15T21:25:08.451Z,5.63
2017-08-15T21:27:35.994Z,4.97
2017-08-15T21:30:03.519Z,5.60
2017-08-15T21:32:31.830Z,5.50
2017-08-15T21:34:59.390Z,5.17
2017-08-15T21:37:26.936Z,5.00
2017-08-15T21:39:54.463Z,4.47
2017-08-15T21:42:22.017Z,5.47
2017-08-15T21:44:49.546Z,6.20
2017-08-15T21:47:17.103Z,5.43
2017-08-15T21:49:44.630Z,6.40
2017-08-15T21:52:12.190Z,6.37
2017-08-15T21:54:39.721Z,6.30
2017-08-15T21:57:07.275Z,6.57
2017-08-15T21:59:34.798Z,6.47
2017-08-15T22:02:07.992Z,7.10
2017-08-15T22:04:35.514Z,6.93
2017-08-15T22:07:03.630Z,7.10
2017-08-15T22:09:31.158Z,6.77
2017-08-15T22:11:58.719Z,6.90
2017-08-15T22:14:26.248Z,7.00
2017-08-15T22:16:54.555Z,7.37
2017-08-15T22:19:22.109Z,8.03
2017-08-15T22:21:49.651Z,8.17
2017-08-15T22:24:17.211Z,9.30
2017-08-15T22:26:45.507Z,8.83
2017-08-15T22:29:13.055Z,9.60
2017-08-15T22:51:25.230Z,7.57
2017-08-15T22:53:52.788Z,8.00
2017-08-15T22:56:20.553Z,8.33
2017-08-15T22:58:48.111Z,8.40
2017-08-15T23:01:15.635Z,8.13
2017-08-15T23:03:43.950Z,8.07
2017-08-15T23:06:11.481Z,7.43
2017-08-15T23:08:39.047Z,7.20
2017-08-15T23:11:06.576Z,6.10
2017-08-15T23:13:34.866Z,5.90
2017-08-15T23:16:03.181Z,6.13
2017-08-15T23:18:30.733Z,5.70
2017-08-15T23:20:58.302Z,6.60
2017-08-15T23:23:25.823Z,6.70
2017-08-15T23:25:54.138Z,6.47
2017-08-15T23:28:21.671Z,5.90
2017-08-15T23:30:49.258Z,5.97
2017-08-15T23:33:16.791Z,5.90
2017-08-15T23:35:44.343Z,5.90
2017-08-15T23:38:12.630Z,5.43
2017-08-15T23:40:40.199Z,5.80
2017-08-15T23:43:07.727Z,6.67
2017-08-15T23:45:36.055Z,6.67
2017-08-15T23:48:03.854Z,7.17
2017-08-15T23:50:31.450Z,7.70
2017-08-15T23:52:58.979Z,6.80
2017-08-15T23:55:26.526Z,7.10
2017-08-15T23:57:54.141Z,7.80
